sensor_id;sensor_type;location;lat;lon;timestamp;temperature;humidity
254;DHT22;590;48.772;8.846;2023-10-08T00:01:17;11.80;65.60
254;DHT22;590;48.772;8.846;2023-10-08T00:03:46;11.70;66.30
254;DHT22;590;48.772;8.846;2023-10-08T00:06:18;11.70;66.50
254;DHT22;590;48.772;8.846;2023-10-08T00:08:48;11.70;67.40
254;DHT22;590;48.772;8.846;2023-10-08T00:11:16;11.70;68.20
254;DHT22;590;48.772;8.846;2023-10-08T00:13:45;11.70;68.30
254;DHT22;590;48.772;8.846;2023-10-08T00:16:15;11.70;68.40
254;DHT22;590;48.772;8.846;2023-10-08T00:18:45;11.70;68.20
254;DHT22;590;48.772;8.846;2023-10-08T00:21:21;11.70;68.10
254;DHT22;590;48.772;8.846;2023-10-08T00:23:55;11.70;68.20
254;DHT22;590;48.772;8.846;2023-10-08T00:26:27;11.70;68.80
254;DHT22;590;48.772;8.846;2023-10-08T00:28:59;11.70;69.00
254;DHT22;590;48.772;8.846;2023-10-08T00:31:27;11.70;69.60
254;DHT22;590;48.772;8.846;2023-10-08T00:33:59;11.70;69.90
254;DHT22;590;48.772;8.846;2023-10-08T00:36:33;11.70;69.50
254;DHT22;590;48.772;8.846;2023-10-08T00:39:03;11.80;69.50
254;DHT22;590;48.772;8.846;2023-10-08T00:41:36;11.80;69.40
254;DHT22;590;48.772;8.846;2023-10-08T00:44:07;11.80;69.10
254;DHT22;590;48.772;8.846;2023-10-08T00:46:36;11.80;69.00
254;DHT22;590;48.772;8.846;2023-10-08T00:49:06;11.80;69.20
254;DHT22;590;48.772;8.846;2023-10-08T00:51:54;11.90;69.30
254;DHT22;590;48.772;8.846;2023-10-08T00:54:52;11.90;68.90
254;DHT22;590;48.772;8.846;2023-10-08T00:57:33;11.90;69.40
254;DHT22;590;48.772;8.846;2023-10-08T01:00:04;11.90;69.90
254;DHT22;590;48.772;8.846;2023-10-08T01:02:42;11.90;70.30
254;DHT22;590;48.772;8.846;2023-10-08T01:05:16;11.90;70.20
254;DHT22;590;48.772;8.846;2023-10-08T01:07:54;11.80;70.20
254;DHT22;590;48.772;8.846;2023-10-08T01:10:22;11.80;70.80
254;DHT22;590;48.772;8.846;2023-10-08T01:12:52;11.80;71.40
254;DHT22;590;48.772;8.846;2023-10-08T01:15:31;11.80;71.00
254;DHT22;590;48.772;8.846;2023-10-08T01:18:03;11.80;71.50
254;DHT22;590;48.772;8.846;2023-10-08T01:20:33;11.70;71.30
254;DHT22;590;48.772;8.846;2023-10-08T01:23:04;11.70;71.00
254;DHT22;590;48.772;8.846;2023-10-08T01:25:37;11.70;71.40
254;DHT22;590;48.772;8.846;2023-10-08T01:28:06;11.70;72.20
254;DHT22;590;48.772;8.846;2023-10-08T01:30:42;11.70;72.90
254;DHT22;590;48.772;8.846;2023-10-08T01:33:13;11.70;73.10
254;DHT22;590;48.772;8.846;2023-10-08T01:35:48;11.70;72.90
254;DHT22;590;48.772;8.846;2023-10-08T01:38:17;11.70;72.70
254;DHT22;590;48.772;8.846;2023-10-08T01:40:50;11.70;72.50
254;DHT22;590;48.772;8.846;2023-10-08T01:43:19;11.70;72.40
254;DHT22;590;48.772;8.846;2023-10-08T01:45:47;11.70;72.00
254;DHT22;590;48.772;8.846;2023-10-08T01:48:18;11.70;72.00
254;DHT22;590;48.772;8.846;2023-10-08T01:50:47;11.70;71.50
254;DHT22;590;48.772;8.846;2023-10-08T01:53:15;11.70;71.50
254;DHT22;590;48.772;8.846;2023-10-08T01:55:48;11.60;71.70
254;DHT22;590;48.772;8.846;2023-10-08T01:58:21;11.60;71.50
254;DHT22;590;48.772;8.846;2023-10-08T02:00:51;11.60;71.40
254;DHT22;590;48.772;8.846;2023-10-08T02:03:19;11.60;71.40
254;DHT22;590;48.772;8.846;2023-10-08T02:05:50;11.60;71.50
254;DHT22;590;48.772;8.846;2023-10-08T02:08:20;11.60;71.30
254;DHT22;590;48.772;8.846;2023-10-08T02:10:50;11.60;71.40
254;DHT22;590;48.772;8.846;2023-10-08T02:13:19;11.60;71.30
254;DHT22;590;48.772;8.846;2023-10-08T02:15:49;11.60;71.20
254;DHT22;590;48.772;8.846;2023-10-08T02:18:18;11.50;70.80
254;DHT22;590;48.772;8.846;2023-10-08T02:20:47;11.50;71.10
254;DHT22;590;48.772;8.846;2023-10-08T02:23:15;11.40;71.00
254;DHT22;590;48.772;8.846;2023-10-08T02:25:45;11.30;71.00
254;DHT22;590;48.772;8.846;2023-10-08T02:28:16;11.20;70.70
254;DHT22;590;48.772;8.846;2023-10-08T02:30:47;11.20;70.60
254;DHT22;590;48.772;8.846;2023-10-08T02:33:15;11.10;71.10
254;DHT22;590;48.772;8.846;2023-10-08T02:35:45;11.10;71.60
254;DHT22;590;48.772;8.846;2023-10-08T02:38:16;11.00;71.90
254;DHT22;590;48.772;8.846;2023-10-08T02:40:44;10.90;72.00
254;DHT22;590;48.772;8.846;2023-10-08T02:43:13;10.90;72.40
254;DHT22;590;48.772;8.846;2023-10-08T02:45:44;10.80;73.00
254;DHT22;590;48.772;8.846;2023-10-08T02:48:15;10.80;74.30
254;DHT22;590;48.772;8.846;2023-10-08T02:50:45;10.80;75.00
254;DHT22;590;48.772;8.846;2023-10-08T02:53:13;10.80;74.30
254;DHT22;590;48.772;8.846;2023-10-08T02:55:45;10.80;74.70
254;DHT22;590;48.772;8.846;2023-10-08T02:58:14;10.70;75.10
254;DHT22;590;48.772;8.846;2023-10-08T03:00:44;10.80;75.70
254;DHT22;590;48.772;8.846;2023-10-08T03:03:13;10.80;75.80
254;DHT22;590;48.772;8.846;2023-10-08T03:05:45;10.80;75.40
254;DHT22;590;48.772;8.846;2023-10-08T03:08:14;10.70;75.40
254;DHT22;590;48.772;8.846;2023-10-08T03:10:47;10.60;74.30
254;DHT22;590;48.772;8.846;2023-10-08T03:13:16;10.60;74.70
254;DHT22;590;48.772;8.846;2023-10-08T03:15:48;10.60;75.10
254;DHT22;590;48.772;8.846;2023-10-08T03:18:35;10.60;75.90
254;DHT22;590;48.772;8.846;2023-10-08T03:21:06;10.60;76.30
254;DHT22;590;48.772;8.846;2023-10-08T03:23:50;10.70;75.90
254;DHT22;590;48.772;8.846;2023-10-08T03:26:20;10.70;75.50
254;DHT22;590;48.772;8.846;2023-10-08T03:29:02;10.60;75.70
254;DHT22;590;48.772;8.846;2023-10-08T03:31:36;10.60;75.80
254;DHT22;590;48.772;8.846;2023-10-08T03:34:18;10.60;76.30
254;DHT22;590;48.772;8.846;2023-10-08T03:36:48;10.60;76.30
254;DHT22;590;48.772;8.846;2023-10-08T03:39:17;10.50;76.40
254;DHT22;590;48.772;8.846;2023-10-08T03:41:46;10.50;76.60
254;DHT22;590;48.772;8.846;2023-10-08T03:44:26;10.50;77.70
254;DHT22;590;48.772;8.846;2023-10-08T03:46:58;10.60;77.60
254;DHT22;590;48.772;8.846;2023-10-08T03:49:27;10.60;77.50
254;DHT22;590;48.772;8.846;2023-10-08T03:51:58;10.60;77.20
254;DHT22;590;48.772;8.846;2023-10-08T03:54:27;10.50;76.80
254;DHT22;590;48.772;8.846;2023-10-08T03:57:01;10.50;76.60
254;DHT22;590;48.772;8.846;2023-10-08T03:59:31;10.50;77.30
254;DHT22;590;48.772;8.846;2023-10-08T04:02:03;10.40;77.20
254;DHT22;590;48.772;8.846;2023-10-08T04:04:40;10.50;77.60
254;DHT22;590;48.772;8.846;2023-10-08T04:07:19;10.50;77.40
254;DHT22;590;48.772;8.846;2023-10-08T04:09:57;10.50;77.20
254;DHT22;590;48.772;8.846;2023-10-08T04:12:53;10.50;77.30
254;DHT22;590;48.772;8.846;2023-10-08T04:15:22;10.60;77.20
254;DHT22;590;48.772;8.846;2023-10-08T04:17:51;10.60;76.70
254;DHT22;590;48.772;8.846;2023-10-08T04:20:20;10.60;76.60
254;DHT22;590;48.772;8.846;2023-10-08T04:23:09;10.50;76.50
254;DHT22;590;48.772;8.846;2023-10-08T04:25:45;10.40;76.00
254;DHT22;590;48.772;8.846;2023-10-08T04:28:20;10.40;76.10
254;DHT22;590;48.772;8.846;2023-10-08T04:30:49;10.30;76.70
254;DHT22;590;48.772;8.846;2023-10-08T04:33:19;10.40;77.60
254;DHT22;590;48.772;8.846;2023-10-08T04:35:47;10.40;77.70
254;DHT22;590;48.772;8.846;2023-10-08T04:38:23;10.50;77.80
254;DHT22;590;48.772;8.846;2023-10-08T04:40:53;10.50;77.20
254;DHT22;590;48.772;8.846;2023-10-08T04:43:22;10.60;76.70
254;DHT22;590;48.772;8.846;2023-10-08T04:45:52;10.60;76.80
254;DHT22;590;48.772;8.846;2023-10-08T04:48:22;10.60;77.20
254;DHT22;590;48.772;8.846;2023-10-08T04:50:52;10.60;76.60
254;DHT22;590;48.772;8.846;2023-10-08T04:53:26;10.60;76.50
254;DHT22;590;48.772;8.846;2023-10-08T04:55:59;10.70;76.30
254;DHT22;590;48.772;8.846;2023-10-08T04:58:33;10.70;76.10
254;DHT22;590;48.772;8.846;2023-10-08T05:01:04;10.80;75.20
254;DHT22;590;48.772;8.846;2023-10-08T05:03:56;10.80;74.60
254;DHT22;590;48.772;8.846;2023-10-08T05:06:52;10.90;74.50
254;DHT22;590;48.772;8.846;2023-10-08T05:09:45;10.90;74.50
254;DHT22;590;48.772;8.846;2023-10-08T05:12:19;11.00;74.50
254;DHT22;590;48.772;8.846;2023-10-08T05:15:03;11.00;74.50
254;DHT22;590;48.772;8.846;2023-10-08T05:18:00;11.00;74.50
254;DHT22;590;48.772;8.846;2023-10-08T05:20:41;11.00;74.50
254;DHT22;590;48.772;8.846;2023-10-08T05:23:26;11.00;74.50
254;DHT22;590;48.772;8.846;2023-10-08T05:26:12;11.00;74.50
254;DHT22;590;48.772;8.846;2023-10-08T05:28:48;11.00;73.70
254;DHT22;590;48.772;8.846;2023-10-08T05:31:30;11.00;73.60
254;DHT22;590;48.772;8.846;2023-10-08T05:34:13;11.00;73.00
254;DHT22;590;48.772;8.846;2023-10-08T05:37:01;11.00;72.50
254;DHT22;590;48.772;8.846;2023-10-08T05:39:59;11.00;72.60
254;DHT22;590;48.772;8.846;2023-10-08T05:42:40;10.90;72.40
254;DHT22;590;48.772;8.846;2023-10-08T05:45:13;10.90;72.60
254;DHT22;590;48.772;8.846;2023-10-08T05:47:58;11.00;73.20
254;DHT22;590;48.772;8.846;2023-10-08T05:50:40;11.00;72.50
254;DHT22;590;48.772;8.846;2023-10-08T05:53:23;11.10;72.40
254;DHT22;590;48.772;8.846;2023-10-08T05:56:10;11.20;72.30
254;DHT22;590;48.772;8.846;2023-10-08T05:58:55;11.20;72.00
254;DHT22;590;48.772;8.846;2023-10-08T06:01:41;11.30;71.70
254;DHT22;590;48.772;8.846;2023-10-08T06:04:12;11.30;71.00
254;DHT22;590;48.772;8.846;2023-10-08T06:07:09;11.40;70.50
254;DHT22;590;48.772;8.846;2023-10-08T06:09:45;11.50;69.30
254;DHT22;590;48.772;8.846;2023-10-08T06:12:29;11.60;68.50
254;DHT22;590;48.772;8.846;2023-10-08T06:15:12;11.60;67.40
254;DHT22;590;48.772;8.846;2023-10-08T06:17:40;11.70;67.20
254;DHT22;590;48.772;8.846;2023-10-08T06:20:25;11.80;67.00
254;DHT22;590;48.772;8.846;2023-10-08T06:22:54;11.80;66.30
254;DHT22;590;48.772;8.846;2023-10-08T06:25:29;11.80;66.20
254;DHT22;590;48.772;8.846;2023-10-08T06:27:58;11.90;67.00
254;DHT22;590;48.772;8.846;2023-10-08T06:30:26;12.00;66.50
254;DHT22;590;48.772;8.846;2023-10-08T06:32:58;12.00;66.40
254;DHT22;590;48.772;8.846;2023-10-08T06:35:27;12.10;66.40
254;DHT22;590;48.772;8.846;2023-10-08T06:37:56;12.20;66.10
254;DHT22;590;48.772;8.846;2023-10-08T06:40:26;12.30;64.90
254;DHT22;590;48.772;8.846;2023-10-08T06:43:11;12.40;64.10
254;DHT22;590;48.772;8.846;2023-10-08T06:45:42;12.60;63.40
254;DHT22;590;48.772;8.846;2023-10-08T06:48:11;12.70;62.10
254;DHT22;590;48.772;8.846;2023-10-08T06:50:46;12.90;60.50
254;DHT22;590;48.772;8.846;2023-10-08T06:53:14;13.00;59.70
254;DHT22;590;48.772;8.846;2023-10-08T06:55:45;13.10;59.00
254;DHT22;590;48.772;8.846;2023-10-08T06:58:16;13.20;57.90
254;DHT22;590;48.772;8.846;2023-10-08T07:00:44;13.30;56.60
254;DHT22;590;48.772;8.846;2023-10-08T07:03:16;13.50;56.80
254;DHT22;590;48.772;8.846;2023-10-08T07:05:47;13.60;55.60
254;DHT22;590;48.772;8.846;2023-10-08T07:08:26;13.80;53.20
254;DHT22;590;48.772;8.846;2023-10-08T07:10:56;14.00;51.60
254;DHT22;590;48.772;8.846;2023-10-08T07:13:27;14.20;50.70
254;DHT22;590;48.772;8.846;2023-10-08T07:15:59;14.40;50.40
254;DHT22;590;48.772;8.846;2023-10-08T07:18:33;14.70;49.90
254;DHT22;590;48.772;8.846;2023-10-08T07:21:02;14.80;47.60
254;DHT22;590;48.772;8.846;2023-10-08T07:23:31;15.00;44.00
254;DHT22;590;48.772;8.846;2023-10-08T07:26:02;15.10;45.10
254;DHT22;590;48.772;8.846;2023-10-08T07:28:39;15.30;44.30
254;DHT22;590;48.772;8.846;2023-10-08T07:31:13;15.40;43.90
254;DHT22;590;48.772;8.846;2023-10-08T07:33:43;15.60;41.90
254;DHT22;590;48.772;8.846;2023-10-08T07:36:11;15.80;39.50
254;DHT22;590;48.772;8.846;2023-10-08T07:38:45;16.00;39.70
254;DHT22;590;48.772;8.846;2023-10-08T07:41:13;16.20;38.60
254;DHT22;590;48.772;8.846;2023-10-08T07:43:43;16.30;38.10
254;DHT22;590;48.772;8.846;2023-10-08T07:46:12;16.40;37.90
254;DHT22;590;48.772;8.846;2023-10-08T07:48:45;16.50;37.80
254;DHT22;590;48.772;8.846;2023-10-08T07:51:14;16.60;37.50
254;DHT22;590;48.772;8.846;2023-10-08T07:53:42;16.60;36.80
254;DHT22;590;48.772;8.846;2023-10-08T07:56:12;16.70;35.90
254;DHT22;590;48.772;8.846;2023-10-08T07:58:41;16.70;35.70
254;DHT22;590;48.772;8.846;2023-10-08T08:01:10;16.70;35.80
254;DHT22;590;48.772;8.846;2023-10-08T08:03:40;16.80;35.90
254;DHT22;590;48.772;8.846;2023-10-08T08:06:09;16.80;36.00
254;DHT22;590;48.772;8.846;2023-10-08T08:08:38;16.90;36.30
254;DHT22;590;48.772;8.846;2023-10-08T08:11:07;16.90;36.40
254;DHT22;590;48.772;8.846;2023-10-08T08:13:41;17.00;37.20
254;DHT22;590;48.772;8.846;2023-10-08T08:16:14;17.10;38.80
254;DHT22;590;48.772;8.846;2023-10-08T08:18:49;17.20;40.20
254;DHT22;590;48.772;8.846;2023-10-08T08:21:22;17.30;40.90
254;DHT22;590;48.772;8.846;2023-10-08T08:23:50;17.50;41.40
254;DHT22;590;48.772;8.846;2023-10-08T08:26:21;17.70;41.60
254;DHT22;590;48.772;8.846;2023-10-08T08:28:57;17.90;40.50
254;DHT22;590;48.772;8.846;2023-10-08T08:31:30;18.10;39.20
254;DHT22;590;48.772;8.846;2023-10-08T08:33:59;18.30;38.20
254;DHT22;590;48.772;8.846;2023-10-08T08:36:30;18.50;35.70
254;DHT22;590;48.772;8.846;2023-10-08T08:38:59;18.70;32.00
254;DHT22;590;48.772;8.846;2023-10-08T08:41:27;18.80;29.70
254;DHT22;590;48.772;8.846;2023-10-08T08:43:58;19.10;28.60
254;DHT22;590;48.772;8.846;2023-10-08T08:46:32;19.20;26.20
254;DHT22;590;48.772;8.846;2023-10-08T08:49:04;19.40;26.20
254;DHT22;590;48.772;8.846;2023-10-08T08:51:35;19.60;26.60
254;DHT22;590;48.772;8.846;2023-10-08T08:54:05;19.80;26.20
254;DHT22;590;48.772;8.846;2023-10-08T08:56:34;20.00;25.00
254;DHT22;590;48.772;8.846;2023-10-08T08:59:04;20.20;25.30
254;DHT22;590;48.772;8.846;2023-10-08T09:01:34;20.50;25.50
254;DHT22;590;48.772;8.846;2023-10-08T09:04:03;20.70;25.60
254;DHT22;590;48.772;8.846;2023-10-08T09:06:33;20.70;25.70
254;DHT22;590;48.772;8.846;2023-10-08T09:09:02;20.80;25.20
254;DHT22;590;48.772;8.846;2023-10-08T09:11:49;20.80;25.10
254;DHT22;590;48.772;8.846;2023-10-08T09:14:20;20.80;24.60
254;DHT22;590;48.772;8.846;2023-10-08T09:16:51;20.70;24.70
254;DHT22;590;48.772;8.846;2023-10-08T09:19:21;20.70;24.90
254;DHT22;590;48.772;8.846;2023-10-08T09:22:02;20.80;24.90
254;DHT22;590;48.772;8.846;2023-10-08T09:24:32;21.10;24.70
254;DHT22;590;48.772;8.846;2023-10-08T09:27:03;21.40;23.50
254;DHT22;590;48.772;8.846;2023-10-08T09:29:32;21.70;22.60
254;DHT22;590;48.772;8.846;2023-10-08T09:32:09;22.10;21.60
254;DHT22;590;48.772;8.846;2023-10-08T09:34:38;22.40;17.90
254;DHT22;590;48.772;8.846;2023-10-08T09:37:06;22.70;13.90
254;DHT22;590;48.772;8.846;2023-10-08T09:39:35;22.70;13.50
254;DHT22;590;48.772;8.846;2023-10-08T09:42:04;22.80;13.60
254;DHT22;590;48.772;8.846;2023-10-08T09:44:54;22.80;13.20
254;DHT22;590;48.772;8.846;2023-10-08T09:47:24;22.70;13.30
254;DHT22;590;48.772;8.846;2023-10-08T09:49:59;22.70;13.30
254;DHT22;590;48.772;8.846;2023-10-08T09:52:42;22.80;13.50
254;DHT22;590;48.772;8.846;2023-10-08T09:55:17;22.90;14.40
254;DHT22;590;48.772;8.846;2023-10-08T09:57:46;23.00;14.50
254;DHT22;590;48.772;8.846;2023-10-08T10:00:18;23.00;14.60
254;DHT22;590;48.772;8.846;2023-10-08T10:03:01;23.10;14.60
254;DHT22;590;48.772;8.846;2023-10-08T10:05:31;23.20;14.00
254;DHT22;590;48.772;8.846;2023-10-08T10:08:02;23.30;12.30
254;DHT22;590;48.772;8.846;2023-10-08T10:10:36;23.30;12.20
254;DHT22;590;48.772;8.846;2023-10-08T10:13:09;23.20;9.90
254;DHT22;590;48.772;8.846;2023-10-08T10:15:41;23.10;10.30
254;DHT22;590;48.772;8.846;2023-10-08T10:18:30;23.20;11.00
254;DHT22;590;48.772;8.846;2023-10-08T10:21:24;23.30;10.60
254;DHT22;590;48.772;8.846;2023-10-08T10:23:54;23.50;10.10
254;DHT22;590;48.772;8.846;2023-10-08T10:26:25;23.60;10.20
254;DHT22;590;48.772;8.846;2023-10-08T10:29:17;23.80;8.80
254;DHT22;590;48.772;8.846;2023-10-08T10:31:48;23.90;8.50
254;DHT22;590;48.772;8.846;2023-10-08T10:34:22;24.00;8.10
254;DHT22;590;48.772;8.846;2023-10-08T10:36:56;24.10;7.90
254;DHT22;590;48.772;8.846;2023-10-08T10:39:26;24.20;7.50
254;DHT22;590;48.772;8.846;2023-10-08T10:41:58;24.20;7.90
254;DHT22;590;48.772;8.846;2023-10-08T10:44:28;24.20;6.00
254;DHT22;590;48.772;8.846;2023-10-08T10:46:58;24.20;6.80
254;DHT22;590;48.772;8.846;2023-10-08T10:49:42;24.20;5.70
254;DHT22;590;48.772;8.846;2023-10-08T10:52:21;24.10;4.30
254;DHT22;590;48.772;8.846;2023-10-08T10:55:03;24.20;5.50
254;DHT22;590;48.772;8.846;2023-10-08T10:57:47;24.20;5.00
254;DHT22;590;48.772;8.846;2023-10-08T11:00:23;24.20;4.70
254;DHT22;590;48.772;8.846;2023-10-08T11:03:09;24.10;4.70
254;DHT22;590;48.772;8.846;2023-10-08T11:05:56;24.10;4.00
254;DHT22;590;48.772;8.846;2023-10-08T11:08:27;24.20;4.50
254;DHT22;590;48.772;8.846;2023-10-08T11:11:02;24.30;4.90
254;DHT22;590;48.772;8.846;2023-10-08T11:13:34;24.50;4.60
254;DHT22;590;48.772;8.846;2023-10-08T11:16:07;24.60;4.90
254;DHT22;590;48.772;8.846;2023-10-08T11:18:43;24.60;4.60
254;DHT22;590;48.772;8.846;2023-10-08T11:21:15;24.60;3.10
254;DHT22;590;48.772;8.846;2023-10-08T11:23:45;24.60;3.30
254;DHT22;590;48.772;8.846;2023-10-08T11:26:23;24.50;1.10
254;DHT22;590;48.772;8.846;2023-10-08T11:29:00;24.40;2.60
254;DHT22;590;48.772;8.846;2023-10-08T11:31:30;24.30;2.80
254;DHT22;590;48.772;8.846;2023-10-08T11:34:03;24.20;1.20
254;DHT22;590;48.772;8.846;2023-10-08T11:36:37;24.00;1.00
254;DHT22;590;48.772;8.846;2023-10-08T11:39:20;23.90;1.10
254;DHT22;590;48.772;8.846;2023-10-08T11:41:58;23.90;1.70
254;DHT22;590;48.772;8.846;2023-10-08T11:44:30;23.90;1.80
254;DHT22;590;48.772;8.846;2023-10-08T11:47:05;23.80;1.20
254;DHT22;590;48.772;8.846;2023-10-08T11:49:40;23.80;1.30
254;DHT22;590;48.772;8.846;2023-10-08T11:52:20;23.90;1.80
254;DHT22;590;48.772;8.846;2023-10-08T11:54:50;23.90;2.20
254;DHT22;590;48.772;8.846;2023-10-08T11:57:20;24.00;1.40
254;DHT22;590;48.772;8.846;2023-10-08T11:59:50;24.10;2.00
254;DHT22;590;48.772;8.846;2023-10-08T12:02:25;24.20;1.70
254;DHT22;590;48.772;8.846;2023-10-08T12:04:53;24.40;1.50
254;DHT22;590;48.772;8.846;2023-10-08T12:07:26;24.60;2.00
254;DHT22;590;48.772;8.846;2023-10-08T12:09:55;24.80;1.00
254;DHT22;590;48.772;8.846;2023-10-08T12:12:23;25.00;1.00
254;DHT22;590;48.772;8.846;2023-10-08T12:14:51;25.00;1.00
254;DHT22;590;48.772;8.846;2023-10-08T12:17:22;25.00;1.00
254;DHT22;590;48.772;8.846;2023-10-08T12:20:05;25.00;1.00
254;DHT22;590;48.772;8.846;2023-10-08T12:22:51;25.00;1.00
254;DHT22;590;48.772;8.846;2023-10-08T12:25:19;25.00;1.00
254;DHT22;590;48.772;8.846;2023-10-08T12:27:47;25.00;1.00
254;DHT22;590;48.772;8.846;2023-10-08T12:30:16;25.10;1.00
254;DHT22;590;48.772;8.846;2023-10-08T12:32:44;25.10;1.00
254;DHT22;590;48.772;8.846;2023-10-08T12:35:13;25.10;1.00
254;DHT22;590;48.772;8.846;2023-10-08T12:37:41;25.10;1.00
254;DHT22;590;48.772;8.846;2023-10-08T12:40:12;25.20;1.00
254;DHT22;590;48.772;8.846;2023-10-08T12:42:50;25.20;1.00
254;DHT22;590;48.772;8.846;2023-10-08T12:45:19;25.20;1.00
254;DHT22;590;48.772;8.846;2023-10-08T12:47:49;25.30;1.00
254;DHT22;590;48.772;8.846;2023-10-08T12:50:18;25.30;1.00
254;DHT22;590;48.772;8.846;2023-10-08T12:52:51;25.30;1.00
254;DHT22;590;48.772;8.846;2023-10-08T12:55:23;25.40;1.00
254;DHT22;590;48.772;8.846;2023-10-08T12:57:52;25.40;1.00
254;DHT22;590;48.772;8.846;2023-10-08T13:00:23;25.40;1.00
254;DHT22;590;48.772;8.846;2023-10-08T13:02:52;25.40;1.00
254;DHT22;590;48.772;8.846;2023-10-08T13:05:21;25.30;1.00
254;DHT22;590;48.772;8.846;2023-10-08T13:07:55;25.30;1.00
254;DHT22;590;48.772;8.846;2023-10-08T13:10:24;25.20;1.00
254;DHT22;590;48.772;8.846;2023-10-08T13:12:53;25.10;1.00
254;DHT22;590;48.772;8.846;2023-10-08T13:15:23;25.20;1.00
254;DHT22;590;48.772;8.846;2023-10-08T13:17:52;25.10;1.00
254;DHT22;590;48.772;8.846;2023-10-08T13:20:21;25.00;1.00
254;DHT22;590;48.772;8.846;2023-10-08T13:22:50;25.00;1.00
254;DHT22;590;48.772;8.846;2023-10-08T13:25:18;25.00;1.00
254;DHT22;590;48.772;8.846;2023-10-08T13:27:49;24.90;1.00
254;DHT22;590;48.772;8.846;2023-10-08T13:30:19;25.00;1.00
254;DHT22;590;48.772;8.846;2023-10-08T13:32:47;25.10;1.00
254;DHT22;590;48.772;8.846;2023-10-08T13:35:16;25.10;1.00
254;DHT22;590;48.772;8.846;2023-10-08T13:37:44;25.10;1.00
254;DHT22;590;48.772;8.846;2023-10-08T13:40:14;25.10;1.00
254;DHT22;590;48.772;8.846;2023-10-08T13:42:42;25.20;1.00
254;DHT22;590;48.772;8.846;2023-10-08T13:45:13;25.20;1.00
254;DHT22;590;48.772;8.846;2023-10-08T13:47:53;25.20;1.00
254;DHT22;590;48.772;8.846;2023-10-08T13:50:23;25.20;1.00
254;DHT22;590;48.772;8.846;2023-10-08T13:52:51;25.20;1.00
254;DHT22;590;48.772;8.846;2023-10-08T13:55:19;25.20;1.00
254;DHT22;590;48.772;8.846;2023-10-08T13:57:51;25.10;1.00
254;DHT22;590;48.772;8.846;2023-10-08T14:00:22;25.10;1.00
254;DHT22;590;48.772;8.846;2023-10-08T14:02:53;25.10;1.00
254;DHT22;590;48.772;8.846;2023-10-08T14:05:21;25.10;1.00
254;DHT22;590;48.772;8.846;2023-10-08T14:07:51;25.10;1.00
254;DHT22;590;48.772;8.846;2023-10-08T14:10:20;25.10;1.00
254;DHT22;590;48.772;8.846;2023-10-08T14:12:56;25.10;1.00
254;DHT22;590;48.772;8.846;2023-10-08T14:15:29;25.00;1.00
254;DHT22;590;48.772;8.846;2023-10-08T14:17:59;24.90;1.00
254;DHT22;590;48.772;8.846;2023-10-08T14:20:34;24.80;1.00
254;DHT22;590;48.772;8.846;2023-10-08T14:23:02;24.80;1.00
254;DHT22;590;48.772;8.846;2023-10-08T14:25:31;24.70;1.00
254;DHT22;590;48.772;8.846;2023-10-08T14:28:00;24.60;1.00
254;DHT22;590;48.772;8.846;2023-10-08T14:30:34;24.60;1.00
254;DHT22;590;48.772;8.846;2023-10-08T14:33:08;24.50;1.00
254;DHT22;590;48.772;8.846;2023-10-08T14:35:50;24.50;1.00
254;DHT22;590;48.772;8.846;2023-10-08T14:38:36;24.40;1.00
254;DHT22;590;48.772;8.846;2023-10-08T14:41:22;24.30;1.00
254;DHT22;590;48.772;8.846;2023-10-08T14:44:08;24.20;1.00
254;DHT22;590;48.772;8.846;2023-10-08T14:46:39;24.10;1.00
254;DHT22;590;48.772;8.846;2023-10-08T14:49:07;24.00;1.00
254;DHT22;590;48.772;8.846;2023-10-08T14:51:38;24.00;1.00
254;DHT22;590;48.772;8.846;2023-10-08T14:54:07;24.00;1.00
254;DHT22;590;48.772;8.846;2023-10-08T14:56:35;23.90;1.00
254;DHT22;590;48.772;8.846;2023-10-08T14:59:04;23.90;1.00
254;DHT22;590;48.772;8.846;2023-10-08T15:01:32;23.90;1.00
254;DHT22;590;48.772;8.846;2023-10-08T15:04:02;23.90;1.00
254;DHT22;590;48.772;8.846;2023-10-08T15:06:32;23.80;1.00
254;DHT22;590;48.772;8.846;2023-10-08T15:09:06;23.80;1.00
254;DHT22;590;48.772;8.846;2023-10-08T15:11:36;23.70;1.00
254;DHT22;590;48.772;8.846;2023-10-08T15:14:04;23.70;1.00
254;DHT22;590;48.772;8.846;2023-10-08T15:16:36;23.70;1.00
254;DHT22;590;48.772;8.846;2023-10-08T15:19:10;23.60;1.10
254;DHT22;590;48.772;8.846;2023-10-08T15:21:39;23.60;1.00
254;DHT22;590;48.772;8.846;2023-10-08T15:24:07;23.50;1.00
254;DHT22;590;48.772;8.846;2023-10-08T15:26:38;23.50;1.40
254;DHT22;590;48.772;8.846;2023-10-08T15:29:07;23.50;1.00
254;DHT22;590;48.772;8.846;2023-10-08T15:31:35;23.50;1.40
254;DHT22;590;48.772;8.846;2023-10-08T15:34:03;23.50;1.20
254;DHT22;590;48.772;8.846;2023-10-08T15:36:33;23.60;1.10
254;DHT22;590;48.772;8.846;2023-10-08T15:39:03;23.60;1.40
254;DHT22;590;48.772;8.846;2023-10-08T15:41:33;23.60;1.40
254;DHT22;590;48.772;8.846;2023-10-08T15:44:02;23.60;1.10
254;DHT22;590;48.772;8.846;2023-10-08T15:46:31;23.60;1.10
254;DHT22;590;48.772;8.846;2023-10-08T15:49:01;23.60;2.10
254;DHT22;590;48.772;8.846;2023-10-08T15:51:30;23.60;2.00
254;DHT22;590;48.772;8.846;2023-10-08T15:54:00;23.60;2.40
254;DHT22;590;48.772;8.846;2023-10-08T15:56:28;23.60;2.20
254;DHT22;590;48.772;8.846;2023-10-08T15:58:56;23.60;2.70
254;DHT22;590;48.772;8.846;2023-10-08T16:01:24;23.60;2.70
254;DHT22;590;48.772;8.846;2023-10-08T16:03:53;23.50;3.20
254;DHT22;590;48.772;8.846;2023-10-08T16:06:22;23.50;2.60
254;DHT22;590;48.772;8.846;2023-10-08T16:08:53;23.40;2.70
254;DHT22;590;48.772;8.846;2023-10-08T16:11:22;23.40;2.90
254;DHT22;590;48.772;8.846;2023-10-08T16:13:50;23.30;3.40
254;DHT22;590;48.772;8.846;2023-10-08T16:16:18;23.20;3.20
254;DHT22;590;48.772;8.846;2023-10-08T16:18:47;23.10;2.60
254;DHT22;590;48.772;8.846;2023-10-08T16:21:18;23.10;3.70
254;DHT22;590;48.772;8.846;2023-10-08T16:23:50;23.00;4.10
254;DHT22;590;48.772;8.846;2023-10-08T16:26:23;22.90;4.40
254;DHT22;590;48.772;8.846;2023-10-08T16:28:53;22.80;5.10
254;DHT22;590;48.772;8.846;2023-10-08T16:31:21;22.60;5.70
254;DHT22;590;48.772;8.846;2023-10-08T16:33:51;22.50;5.90
254;DHT22;590;48.772;8.846;2023-10-08T16:36:22;22.40;6.60
254;DHT22;590;48.772;8.846;2023-10-08T16:38:53;22.30;6.90
254;DHT22;590;48.772;8.846;2023-10-08T16:41:26;22.10;7.80
254;DHT22;590;48.772;8.846;2023-10-08T16:43:57;22.00;8.70
254;DHT22;590;48.772;8.846;2023-10-08T16:46:25;21.80;9.60
254;DHT22;590;48.772;8.846;2023-10-08T16:48:53;21.60;10.10
254;DHT22;590;48.772;8.846;2023-10-08T16:51:21;21.50;10.80
254;DHT22;590;48.772;8.846;2023-10-08T16:53:50;21.30;11.40
254;DHT22;590;48.772;8.846;2023-10-08T16:56:18;21.10;11.70
254;DHT22;590;48.772;8.846;2023-10-08T16:58:52;21.00;12.10
254;DHT22;590;48.772;8.846;2023-10-08T17:01:20;20.80;13.20
254;DHT22;590;48.772;8.846;2023-10-08T17:03:52;20.60;14.40
254;DHT22;590;48.772;8.846;2023-10-08T17:06:22;20.50;14.90
254;DHT22;590;48.772;8.846;2023-10-08T17:08:50;20.30;15.70
254;DHT22;590;48.772;8.846;2023-10-08T17:11:21;20.10;16.70
254;DHT22;590;48.772;8.846;2023-10-08T17:13:54;19.90;17.60
254;DHT22;590;48.772;8.846;2023-10-08T17:16:22;19.80;18.60
254;DHT22;590;48.772;8.846;2023-10-08T17:18:50;19.60;19.30